createdAt,value
2023-05-13T00:00:50.286Z,69.62
2023-05-13T00:03:52.462Z,69.76
2023-05-13T00:06:55.469Z,69.51
2023-05-13T00:09:57.565Z,70.64
2023-05-13T00:13:00.492Z,69.15
2023-05-13T00:16:04.128Z,69.56
2023-05-13T00:19:06.745Z,69.85
2023-05-13T00:22:09.190Z,69.07
2023-05-13T00:25:12.149Z,69.31
2023-05-13T00:28:15.434Z,69.36
2023-05-13T00:31:18.513Z,71.00
2023-05-13T00:34:20.868Z,71.06
2023-05-13T00:37:23.598Z,71.06
2023-05-13T00:40:26.251Z,70.38
2023-05-13T00:43:29.605Z,69.94
2023-05-13T00:46:35.613Z,69.85
2023-05-13T00:49:38.758Z,70.30
2023-05-13T00:52:42.381Z,70.45
2023-05-13T00:55:46.365Z,70.92
2023-05-13T00:58:49.128Z,69.84
2023-05-13T01:02:06.541Z,70.79
2023-05-13T01:05:38.622Z,70.46
2023-05-13T01:08:52.202Z,69.23
2023-05-13T01:11:56.759Z,69.38
2023-05-13T01:15:05.230Z,69.31
2023-05-13T01:18:11.665Z,69.43
2023-05-13T01:21:14.481Z,70.26
2023-05-13T01:24:16.726Z,70.67
2023-05-13T01:27:19.386Z,70.27
2023-05-13T01:30:24.170Z,70.54
2023-05-13T01:33:27.584Z,70.76
2023-05-13T01:36:30.272Z,71.53
2023-05-13T01:39:33.048Z,71.71
2023-05-13T01:42:40.545Z,71.64
2023-05-13T01:45:44.597Z,73.12
2023-05-13T01:48:48.517Z,73.16
2023-05-13T01:51:51.522Z,72.88
2023-05-13T01:54:54.641Z,72.93
2023-05-13T01:57:57.428Z,73.07
2023-05-13T02:01:00.850Z,74.07
2023-05-13T02:04:04.055Z,74.27
2023-05-13T02:07:07.238Z,74.64
2023-05-13T02:10:11.931Z,75.24
2023-05-13T02:13:14.000Z,75.04
2023-05-13T02:16:18.606Z,75.20
2023-05-13T02:19:21.274Z,74.71
2023-05-13T02:22:26.260Z,75.45
2023-05-13T02:25:29.676Z,76.10
2023-05-13T02:28:32.218Z,77.09
2023-05-13T02:31:38.680Z,76.12
2023-05-13T02:34:41.648Z,75.86
2023-05-13T02:37:43.885Z,75.53
2023-05-13T02:40:47.362Z,75.33
2023-05-13T02:43:53.717Z,74.60
2023-05-13T02:46:56.387Z,75.64
2023-05-13T02:49:59.247Z,75.27
2023-05-13T02:53:02.113Z,75.36
2023-05-13T02:56:05.437Z,76.08
2023-05-13T02:59:08.493Z,77.12
2023-05-13T03:02:11.550Z,76.31
2023-05-13T03:05:14.873Z,76.09
2023-05-13T03:08:17.298Z,76.69
2023-05-13T03:11:23.826Z,77.10
2023-05-13T03:14:27.352Z,76.34
2023-05-13T03:17:32.199Z,76.69
2023-05-13T03:20:36.524Z,76.18
2023-05-13T03:23:40.005Z,76.95
2023-05-13T03:26:42.910Z,77.25
2023-05-13T03:29:45.916Z,76.84
2023-05-13T03:32:49.998Z,77.26
2023-05-13T03:35:52.666Z,77.67
2023-05-13T03:39:00.755Z,77.38
2023-05-13T03:42:04.161Z,77.29
2023-05-13T03:45:07.454Z,76.85
2023-05-13T03:48:14.287Z,76.63
2023-05-13T03:51:16.429Z,76.46
2023-05-13T03:54:21.387Z,77.44
2023-05-13T03:57:23.457Z,76.96
2023-05-13T04:00:26.244Z,77.47
2023-05-13T04:03:28.381Z,77.62
2023-05-13T04:06:32.350Z,77.79
2023-05-13T04:09:34.463Z,77.76
2023-05-13T04:12:40.740Z,77.37
2023-05-13T04:15:42.730Z,76.37
2023-05-13T04:18:45.394Z,76.79
2023-05-13T04:21:48.068Z,76.63
2023-05-13T04:24:57.060Z,76.66
2023-05-13T04:27:59.505Z,76.50
2023-05-13T04:31:16.571Z,75.99
2023-05-13T04:34:19.000Z,75.08
2023-05-13T04:37:23.207Z,75.24
2023-05-13T04:40:28.259Z,75.17
2023-05-13T04:43:51.025Z,76.18
2023-05-13T04:46:53.786Z,74.63
2023-05-13T04:49:56.651Z,74.96
2023-05-13T04:52:59.495Z,76.02
2023-05-13T04:56:02.330Z,76.41
2023-05-13T04:59:05.667Z,76.79
2023-05-13T05:02:08.357Z,76.06
2023-05-13T05:05:11.686Z,75.74
2023-05-13T05:08:14.471Z,76.40
2023-05-13T05:11:17.167Z,76.73
2023-05-13T05:14:20.771Z,74.62
2023-05-13T05:17:25.569Z,73.16
2023-05-13T05:20:28.661Z,73.21
2023-05-13T05:23:33.804Z,72.53
2023-05-13T05:26:36.914Z,72.29
2023-05-13T05:29:39.915Z,73.19
2023-05-13T05:32:42.737Z,75.90
2023-05-13T05:35:46.161Z,74.89
2023-05-13T05:38:52.565Z,72.72
2023-05-13T05:41:56.026Z,74.30
2023-05-13T05:44:58.927Z,75.13
2023-05-13T05:48:01.349Z,74.33
2023-05-13T05:51:05.013Z,72.93
2023-05-13T05:54:21.642Z,72.85
2023-05-13T05:57:24.513Z,73.30
2023-05-13T06:00:26.548Z,73.91
2023-05-13T06:03:34.317Z,74.27
2023-05-13T06:06:37.014Z,74.54
2023-05-13T06:09:42.037Z,75.10
2023-05-13T06:12:44.155Z,75.27
2023-05-13T06:15:46.664Z,75.08
2023-05-13T06:18:48.897Z,74.60
2023-05-13T06:21:51.488Z,74.73
2023-05-13T06:24:53.531Z,74.53
2023-05-13T06:27:56.582Z,73.76
2023-05-13T06:31:01.662Z,75.01
2023-05-13T06:34:05.578Z,74.44
2023-05-13T06:37:15.653Z,75.29
2023-05-13T06:40:25.632Z,75.00
2023-05-13T06:43:32.275Z,74.59
2023-05-13T06:46:50.559Z,74.23
2023-05-13T06:49:53.583Z,74.65
2023-05-13T06:52:56.201Z,73.64
2023-05-13T06:55:58.226Z,73.52
2023-05-13T06:59:00.648Z,73.25
2023-05-13T07:02:06.127Z,72.30
2023-05-13T07:05:11.492Z,73.16
2023-05-13T07:08:18.184Z,72.07
2023-05-13T07:11:23.269Z,72.63
2023-05-13T07:14:26.626Z,72.22
2023-05-13T07:17:31.678Z,72.98
2023-05-13T07:20:33.824Z,71.36
2023-05-13T07:23:36.731Z,71.55
2023-05-13T07:26:39.269Z,71.21
2023-05-13T07:29:44.045Z,70.09
2023-05-13T07:32:46.602Z,70.37
2023-05-13T07:35:49.770Z,69.29
2023-05-13T07:38:54.106Z,69.25
2023-05-13T07:41:56.757Z,69.27
2023-05-13T07:44:59.006Z,67.97
2023-05-13T07:48:01.624Z,67.55
2023-05-13T07:51:04.069Z,68.02
2023-05-13T07:54:06.624Z,68.75
2023-05-13T07:57:08.992Z,68.14
2023-05-13T08:00:12.884Z,68.09
2023-05-13T08:03:17.474Z,67.44
2023-05-13T08:06:21.477Z,67.23
2023-05-13T08:09:24.962Z,67.99
2023-05-13T08:12:28.702Z,67.71
2023-05-13T08:15:30.753Z,66.12
2023-05-13T08:18:34.373Z,67.09
2023-05-13T08:21:36.419Z,67.07
2023-05-13T08:24:41.424Z,68.29
2023-05-13T08:27:44.933Z,66.81
2023-05-13T08:30:47.852Z,66.46
2023-05-13T08:33:49.920Z,66.97
2023-05-13T08:36:52.810Z,68.20
2023-05-13T08:39:56.666Z,66.55
2023-05-13T08:43:02.952Z,67.09
2023-05-13T08:46:10.229Z,66.20
2023-05-13T08:49:13.856Z,67.17
2023-05-13T08:52:16.608Z,65.53
2023-05-13T08:55:21.409Z,66.70
2023-05-13T08:58:25.641Z,66.27
2023-05-13T09:01:30.562Z,66.77
2023-05-13T09:04:34.490Z,66.23
2023-05-13T09:07:38.770Z,67.59
2023-05-13T09:10:41.160Z,66.36
2023-05-13T09:13:45.312Z,66.89
2023-05-13T09:16:48.051Z,67.40
2023-05-13T09:19:51.153Z,68.13
2023-05-13T09:23:08.507Z,67.56
2023-05-13T09:26:28.515Z,66.80
2023-05-13T09:29:30.711Z,67.47
2023-05-13T09:32:56.573Z,67.46
2023-05-13T09:35:59.396Z,66.97
2023-05-13T09:39:06.665Z,67.92
2023-05-13T09:42:18.350Z,67.90
2023-05-13T09:45:25.129Z,67.73
2023-05-13T09:48:29.828Z,67.32
2023-05-13T09:51:32.938Z,66.96
2023-05-13T09:54:35.994Z,67.80
2023-05-13T09:57:41.089Z,67.42
2023-05-13T10:03:47.121Z,66.13
2023-05-13T10:06:51.080Z,66.04
2023-05-13T10:10:02.678Z,66.86
2023-05-13T10:13:14.488Z,67.82
2023-05-13T10:16:19.189Z,67.22
2023-05-13T10:19:25.031Z,67.07
2023-05-13T10:22:30.532Z,66.45
2023-05-13T10:25:33.590Z,67.08
2023-05-13T10:28:37.836Z,66.52
2023-05-13T10:32:05.321Z,67.62
2023-05-13T10:35:17.870Z,66.27
2023-05-13T10:38:39.725Z,68.27
2023-05-13T10:42:01.252Z,67.08
2023-05-13T10:45:03.651Z,68.39
2023-05-13T10:48:08.228Z,68.37
2023-05-13T10:51:15.085Z,67.93
2023-05-13T10:54:22.762Z,68.00
2023-05-13T10:57:31.251Z,67.22
2023-05-13T11:00:34.652Z,67.85
2023-05-13T11:03:38.691Z,69.11
2023-05-13T11:06:43.586Z,68.65
2023-05-13T11:09:51.390Z,68.56
2023-05-13T11:13:09.795Z,67.33
2023-05-13T11:16:14.888Z,67.24
2023-05-13T11:19:21.906Z,67.77
2023-05-13T11:22:27.820Z,67.89
2023-05-13T11:25:31.049Z,66.69
2023-05-13T11:29:05.294Z,67.50
2023-05-13T11:32:07.828Z,67.01
2023-05-13T11:35:10.749Z,68.50
2023-05-13T11:38:23.830Z,68.08
2023-05-13T11:41:26.215Z,66.90
2023-05-13T11:44:28.983Z,67.04
2023-05-13T11:47:31.176Z,66.93
2023-05-13T11:50:33.897Z,67.48
2023-05-13T11:53:36.372Z,67.44
2023-05-13T11:56:44.789Z,67.31
2023-05-13T12:00:01.018Z,65.83
2023-05-13T12:03:12.168Z,67.08
2023-05-13T12:06:14.861Z,66.85
2023-05-13T12:09:18.443Z,67.90
2023-05-13T12:12:21.017Z,66.85
2023-05-13T12:15:24.155Z,67.33
2023-05-13T12:18:26.714Z,67.24
2023-05-13T12:21:34.780Z,68.03
2023-05-13T12:24:36.966Z,68.67
2023-05-13T12:27:39.523Z,69.59
2023-05-13T12:30:45.340Z,68.33
2023-05-13T12:33:49.422Z,68.42
2023-05-13T12:36:52.172Z,67.69
2023-05-13T12:40:10.584Z,67.50
2023-05-13T12:43:14.542Z,67.42
2023-05-13T12:46:17.508Z,67.39
2023-05-13T12:49:20.071Z,66.83
2023-05-13T12:52:24.272Z,67.56
2023-05-13T12:55:30.239Z,67.32
2023-05-13T12:58:32.797Z,66.85
2023-05-13T13:01:35.971Z,67.57
2023-05-13T13:04:39.387Z,67.07
2023-05-13T13:07:42.555Z,65.77
2023-05-13T13:10:46.182Z,66.96
2023-05-13T13:13:49.921Z,67.46
2023-05-13T13:16:52.329Z,66.88
2023-05-13T13:19:54.831Z,66.15
2023-05-13T13:22:59.745Z,66.89
2023-05-13T13:26:02.243Z,66.26
2023-05-13T13:29:05.459Z,65.90
2023-05-13T13:32:14.266Z,65.40
2023-05-13T13:35:20.926Z,66.15
2023-05-13T13:38:23.941Z,66.73
2023-05-13T13:41:27.434Z,66.37
2023-05-13T13:44:30.021Z,66.15
2023-05-13T13:47:33.707Z,66.05
2023-05-13T13:50:41.962Z,65.36
2023-05-13T13:53:53.490Z,65.19
2023-05-13T13:56:56.013Z,65.21
2023-05-13T14:00:06.773Z,65.50
2023-05-13T14:03:11.957Z,65.64
2023-05-13T14:06:20.769Z,65.00
2023-05-13T14:09:24.418Z,64.70
2023-05-13T14:12:30.110Z,66.51
2023-05-13T14:20:34.739Z,65.64
2023-05-13T14:23:51.941Z,65.03
2023-05-13T14:26:55.568Z,64.50
2023-05-13T14:29:57.843Z,65.27
2023-05-13T14:33:01.235Z,64.32
2023-05-13T14:36:05.233Z,65.28
2023-05-13T14:39:10.191Z,64.94
2023-05-13T14:42:12.419Z,65.79
2023-05-13T14:45:18.397Z,65.39
2023-05-13T14:48:22.222Z,64.34
2023-05-13T14:51:25.909Z,65.57
2023-05-13T14:54:28.344Z,64.46
2023-05-13T14:57:31.397Z,67.96
2023-05-13T15:00:38.054Z,64.43
2023-05-13T15:03:41.334Z,65.13
2023-05-13T15:06:44.673Z,65.46
2023-05-13T15:09:47.497Z,64.81
2023-05-13T15:13:12.430Z,64.34
2023-05-13T15:16:36.415Z,65.61
2023-05-13T15:28:23.899Z,66.24
2023-05-13T15:31:32.239Z,65.67
2023-05-13T15:34:37.228Z,65.60
2023-05-13T15:38:23.469Z,65.89
2023-05-13T15:55:30.040Z,67.14
2023-05-13T15:58:37.583Z,65.44
2023-05-13T16:06:42.097Z,65.66
2023-05-13T16:09:44.495Z,67.38
2023-05-13T16:12:46.865Z,67.98
2023-05-13T16:15:49.903Z,68.52
2023-05-13T16:18:52.298Z,66.58
2023-05-13T16:21:55.687Z,66.91
2023-05-13T16:25:09.509Z,67.64
2023-05-13T16:28:11.955Z,67.82
2023-05-13T16:31:14.079Z,67.49
2023-05-13T16:34:16.591Z,68.34
2023-05-13T16:37:18.777Z,67.97
2023-05-13T16:40:21.541Z,68.94
2023-05-13T16:43:23.670Z,67.50
2023-05-13T16:46:25.983Z,67.05
2023-05-13T16:49:27.988Z,67.46
2023-05-13T16:52:34.268Z,68.37
2023-05-13T16:55:36.248Z,68.24
2023-05-13T16:58:38.924Z,68.31
2023-05-13T17:01:40.953Z,69.89
2023-05-13T17:04:43.302Z,70.85
2023-05-13T17:07:45.361Z,69.94
2023-05-13T17:10:47.692Z,69.21
2023-05-13T17:13:49.718Z,69.33
2023-05-13T17:16:52.206Z,69.36
2023-05-13T17:19:54.359Z,69.58
2023-05-13T17:22:56.566Z,69.61
2023-05-13T17:25:58.995Z,71.39
2023-05-13T17:29:01.534Z,69.67
2023-05-13T17:32:07.496Z,69.28
2023-05-13T17:35:09.908Z,70.30
2023-05-13T17:38:11.867Z,70.06
2023-05-13T17:41:14.120Z,70.13
2023-05-13T17:44:16.198Z,70.17
2023-05-13T17:47:18.907Z,70.64
2023-05-13T17:50:21.293Z,70.72
2023-05-13T17:53:23.738Z,70.70
2023-05-13T17:56:25.874Z,70.79
2023-05-13T17:59:28.277Z,71.27
2023-05-13T18:02:30.272Z,70.95
2023-05-13T18:05:32.806Z,71.86
2023-05-13T18:08:34.735Z,71.58
2023-05-13T18:11:38.656Z,71.96
2023-05-13T18:14:42.354Z,71.61
2023-05-13T18:17:44.673Z,71.80
2023-05-13T18:20:46.716Z,72.12
2023-05-13T18:23:48.997Z,71.09
2023-05-13T18:26:51.103Z,71.49
2023-05-13T18:29:53.357Z,71.83
2023-05-13T18:32:55.331Z,72.33
2023-05-13T18:35:59.689Z,72.52
2023-05-13T18:39:01.624Z,72.42
2023-05-13T18:42:04.056Z,72.87
2023-05-13T18:45:08.008Z,73.19
2023-05-13T18:48:10.367Z,72.95
2023-05-13T18:51:14.597Z,73.07
2023-05-13T18:54:16.979Z,73.93
2023-05-13T18:57:20.832Z,74.76
2023-05-13T19:00:24.193Z,75.51
2023-05-13T19:03:27.069Z,75.90
2023-05-13T19:06:29.909Z,76.26
2023-05-13T19:09:47.716Z,76.34
2023-05-13T19:12:50.060Z,75.80
2023-05-13T19:15:54.103Z,75.89
2023-05-13T19:18:56.540Z,75.58
2023-05-13T19:21:58.806Z,75.29
2023-05-13T19:25:01.138Z,76.15
2023-05-13T19:28:03.143Z,76.52
2023-05-13T19:31:07.176Z,76.60
2023-05-13T19:34:09.942Z,76.92
2023-05-13T19:37:12.618Z,76.12
2023-05-13T19:40:14.885Z,76.47
2023-05-13T19:43:17.675Z,76.21
2023-05-13T19:46:19.711Z,77.84
2023-05-13T19:49:22.415Z,79.02
2023-05-13T19:52:24.412Z,79.63
2023-05-13T19:55:27.011Z,80.01
2023-05-13T19:58:29.038Z,80.23
2023-05-13T20:01:32.098Z,80.49
2023-05-13T20:04:34.309Z,80.62
2023-05-13T20:07:36.593Z,80.13
2023-05-13T20:10:40.526Z,80.47
2023-05-13T20:13:59.315Z,81.33
2023-05-13T20:17:01.370Z,80.94
2023-05-13T20:20:05.338Z,80.96
2023-05-13T20:23:07.829Z,81.44
2023-05-13T20:26:10.263Z,81.91
2023-05-13T20:29:12.633Z,81.01
2023-05-13T20:32:18.428Z,81.21
2023-05-13T20:35:20.526Z,81.93
2023-05-13T20:38:22.983Z,81.85
2023-05-13T20:41:24.955Z,80.95
2023-05-13T20:44:27.356Z,80.60
2023-05-13T20:47:29.351Z,79.92
2023-05-13T20:50:31.993Z,80.18
2023-05-13T20:53:35.587Z,80.04
2023-05-13T20:56:38.688Z,79.46
2023-05-13T20:59:41.689Z,79.43
2023-05-13T21:02:43.831Z,79.91
2023-05-13T21:05:45.991Z,79.44
2023-05-13T21:08:48.185Z,79.34
2023-05-13T21:11:50.051Z,78.66
2023-05-13T21:14:53.009Z,78.60
2023-05-13T21:17:55.067Z,78.10
2023-05-13T21:20:57.480Z,78.02
2023-05-13T21:23:59.558Z,78.20
2023-05-13T21:27:01.949Z,77.46
2023-05-13T21:30:07.570Z,77.46
2023-05-13T21:33:10.808Z,77.07
2023-05-13T21:36:12.758Z,76.67
2023-05-13T21:39:15.205Z,76.74
2023-05-13T21:42:17.132Z,75.61
2023-05-13T21:45:19.452Z,75.46
2023-05-13T21:48:22.112Z,75.67
2023-05-13T21:51:24.663Z,76.65
2023-05-13T21:54:26.514Z,75.65
2023-05-13T21:57:28.905Z,74.55
2023-05-13T22:00:34.346Z,75.69
2023-05-13T22:03:37.201Z,76.69
2023-05-13T22:06:39.218Z,77.19
2023-05-13T22:09:41.633Z,77.38
2023-05-13T22:12:43.546Z,77.44
2023-05-13T22:15:45.722Z,77.00
2023-05-13T22:18:49.405Z,76.81
2023-05-13T22:21:51.699Z,77.43
2023-05-13T22:24:53.610Z,78.30
2023-05-13T22:27:55.925Z,77.81
2023-05-13T22:30:58.065Z,77.64
2023-05-13T22:34:00.308Z,77.09
2023-05-13T22:37:02.230Z,77.42
2023-05-13T22:40:04.851Z,76.93
2023-05-13T22:43:07.013Z,77.00
2023-05-13T22:46:09.275Z,76.79
2023-05-13T22:49:12.291Z,76.95
2023-05-13T22:52:14.466Z,77.13
2023-05-13T22:55:16.393Z,76.53
2023-05-13T22:58:21.809Z,76.56
2023-05-13T23:01:23.809Z,76.58
2023-05-13T23:04:26.049Z,76.77
2023-05-13T23:07:27.919Z,77.25
2023-05-13T23:10:30.664Z,76.67
2023-05-13T23:13:32.598Z,76.25
2023-05-13T23:16:36.505Z,76.53
2023-05-13T23:19:38.604Z,76.18
2023-05-13T23:22:41.105Z,75.39
2023-05-13T23:25:47.136Z,75.89
2023-05-13T23:28:49.318Z,77.03
2023-05-13T23:31:51.271Z,76.69
2023-05-13T23:34:53.469Z,75.05
2023-05-13T23:37:55.669Z,75.22
2023-05-13T23:40:57.791Z,75.67
2023-05-13T23:43:59.668Z,76.98
2023-05-13T23:47:01.948Z,77.64
2023-05-13T23:50:04.504Z,77.56
2023-05-13T23:53:06.675Z,76.86
2023-05-13T23:56:08.558Z,76.79
2023-05-13T23:59:10.868Z,77.20
